Página principal
METAR-TAF:

METAR-TAF

Aeroportos :

Base Aérea das Lajes

Terceira, Açores, Portugal

latitude: 38-46N, longitude: 027-06W, altura: 52 m

Observação actual do tempo

O boletim foi feito há 45 minutos, às 07:00 UTC
Temperatura 15°C
Humidade 82%
Pressão 1029 hPa
Visibilidade 10 km ou mais
Poucas nuvensa uma altura de 2200 ft
Nuvens dispersasa uma altura de 2500 ft

METAR: LPLA 250700Z /////KT 9999 FEW022 SCT025 15/12 Q1029

Hora: 07:45 (07:45 UTC)

Previsão

O boletim foi feito há 2 horas e 41 minutos, às 05:04 UTC
Previsão válida de 25 às 06 UTC a 26 às 06 UTC
Vento 8 kt de es-sudeste
Visibilidade 10 km ou mais
Nuvens dispersasa uma altura de 2500 ft

TAF: LPLA 250504Z 2506/2606 12008KT 9999 SCT025

Observações e previsões do tempo de mais de 4000 aeroportos (mensagens METAR e TAF).

As estações disponíveis são os pontos amarelos e vermelhos sobre o mapa.

Mova o rato sobre o mapa para ver o nome da estação.

Depois clique no ponto para visualizar as observações e previsões meteorológicas.

Para alterar o mapa : clique nos botões verdes com uma cruz preta para aumentar o zoom; no botão verde com uma pitada de zoom; ou nas setas verdes para mapas adjacentes.


METAR-TAF: